Time;durP1;ratioP1;P1;durP2;ratioP2;P2;SDS_P1;SDS_P2;PMS_P1;PMS_P2;Temp;Humidity;BMP_temperature;BMP_pressure;BME280_temperature;BME280_humidity;BME280_pressure;Samples;Min_cycle;Max_cycle;Signal;HPM_P1;HPM_P2
2022/08/17 00:01:56;;;;;;;6.18;4.38;;;20.00;61.90;;;;;;4955531;28;20027;-63
2022/08/17 00:04:22;;;;;;;5.13;4.72;;;19.90;61.50;;;;;;4953049;28;20486;-63
2022/08/17 00:06:49;;;;;;;5.75;4.75;;;19.90;61.70;;;;;;4950184;28;22149;-64
2022/08/17 00:09:15;;;;;;;6.53;4.65;;;19.80;61.90;;;;;;4952840;28;20379;-64
2022/08/17 00:11:42;;;;;;;4.88;4.47;;;19.80;62.00;;;;;;4943063;28;20028;-63
2022/08/17 00:14:16;;;;;;;5.00;4.60;;;19.80;62.10;;;;;;4953508;28;20031;-62
2022/08/17 00:16:50;;;;;;;5.60;4.72;;;19.80;62.40;;;;;;4949115;28;20047;-63
2022/08/17 00:19:21;;;;;;;5.97;4.88;;;19.80;62.50;;;;;;4955080;28;20125;-65
2022/08/17 00:21:49;;;;;;;5.15;4.75;;;19.70;62.40;;;;;;4950111;28;20159;-63
2022/08/17 00:24:15;;;;;;;5.13;4.22;;;19.70;62.20;;;;;;4950964;28;20423;-64
2022/08/17 00:26:42;;;;;;;4.22;3.92;;;19.70;62.30;;;;;;4950052;28;20035;-63
2022/08/17 00:29:08;;;;;;;4.82;4.35;;;19.70;62.30;;;;;;4954943;28;20122;-65
2022/08/17 00:31:35;;;;;;;5.25;4.75;;;19.70;62.40;;;;;;4952936;28;20517;-64
2022/08/17 00:34:03;;;;;;;8.27;4.65;;;19.70;62.50;;;;;;4953797;28;20046;-64
2022/08/17 00:36:29;;;;;;;5.55;4.90;;;19.60;62.60;;;;;;4952510;28;20054;-64
2022/08/17 00:38:54;;;;;;;4.65;4.20;;;19.60;62.60;;;;;;4953445;28;20039;-64
2022/08/17 00:41:23;;;;;;;5.15;4.70;;;19.50;62.80;;;;;;4947272;28;20154;-64
2022/08/17 00:43:57;;;;;;;5.43;4.72;;;19.50;63.10;;;;;;4951592;28;21153;-64
2022/08/17 00:46:27;;;;;;;5.63;5.13;;;19.50;63.60;;;;;;4955304;28;20134;-66
2022/08/17 00:48:54;;;;;;;6.57;5.35;;;19.40;63.60;;;;;;4955409;28;20062;-66
2022/08/17 00:51:31;;;;;;;6.10;5.60;;;19.40;63.40;;;;;;4951210;28;20034;-65
2022/08/17 00:54:06;;;;;;;5.68;5.18;;;19.40;64.30;;;;;;4951988;28;20043;-66
2022/08/17 00:56:38;;;;;;;6.22;5.13;;;19.30;64.00;;;;;;4952650;28;20043;-66
2022/08/17 00:59:06;;;;;;;5.47;4.97;;;19.20;64.20;;;;;;4954694;28;20042;-66
2022/08/17 01:01:32;;;;;;;5.90;5.40;;;19.20;64.10;;;;;;4945767;28;20043;-66
2022/08/17 01:03:59;;;;;;;7.35;5.07;;;19.20;64.30;;;;;;4950741;28;20580;-66
2022/08/17 01:06:25;;;;;;;5.95;5.32;;;19.10;64.60;;;;;;4949908;28;20043;-67
2022/08/17 01:08:54;;;;;;;6.35;5.75;;;19.10;64.60;;;;;;4950747;28;20408;-66
2022/08/17 01:11:20;;;;;;;6.80;5.82;;;19.00;65.00;;;;;;4947856;28;20035;-66
2022/08/17 01:13:46;;;;;;;5.97;5.47;;;19.00;65.90;;;;;;4938004;28;20267;-66
2022/08/17 01:16:19;;;;;;;8.88;5.40;;;19.00;65.20;;;;;;4948005;28;20046;-65
2022/08/17 01:18:49;;;;;;;5.60;5.07;;;19.00;65.70;;;;;;4951410;28;20041;-65
2022/08/17 01:21:35;;;;;;;5.45;4.95;;;19.00;65.50;;;;;;4951185;28;20045;-65
2022/08/17 01:24:02;;;;;;;5.60;5.00;;;19.00;65.60;;;;;;4953936;28;20426;-66
2022/08/17 01:26:29;;;;;;;6.60;5.00;;;18.90;65.20;;;;;;4950498;28;20101;-64
2022/08/17 01:28:55;;;;;;;5.32;4.93;;;19.00;65.30;;;;;;4951970;28;20042;-65
2022/08/17 01:31:23;;;;;;;5.95;5.45;;;19.00;65.30;;;;;;4949429;28;20044;-66
2022/08/17 01:33:48;;;;;;;5.43;4.95;;;19.00;65.30;;;;;;4950152;28;20549;-65
2022/08/17 01:36:14;;;;;;;5.80;5.30;;;19.00;65.30;;;;;;4947645;28;20578;-66
2022/08/17 01:38:39;;;;;;;6.50;5.90;;;19.10;65.50;;;;;;4948577;28;20582;-65
2022/08/17 01:41:13;;;;;;;18.25;10.45;;;19.10;65.20;;;;;;4948599;28;20046;-67
2022/08/17 01:43:46;;;;;;;28.58;14.38;;;19.10;65.40;;;;;;4950676;28;20573;-64
2022/08/17 01:46:21;;;;;;;25.45;12.52;;;19.10;65.30;;;;;;4951418;28;20043;-66
2022/08/17 01:48:47;;;;;;;18.98;10.40;;;19.10;65.30;;;;;;4947845;28;20398;-66
2022/08/17 01:51:14;;;;;;;17.05;10.15;;;19.10;64.90;;;;;;4951591;28;20415;-65
2022/08/17 01:53:46;;;;;;;10.25;7.40;;;19.10;65.00;;;;;;4948077;28;20514;-66
2022/08/17 01:56:15;;;;;;;7.78;6.07;;;19.20;65.00;;;;;;4949842;28;20049;-65
2022/08/17 01:58:42;;;;;;;7.22;6.53;;;19.10;64.80;;;;;;4949474;28;20039;-65
2022/08/17 02:01:09;;;;;;;8.52;6.88;;;19.10;64.90;;;;;;4950732;28;20522;-65
2022/08/17 02:03:37;;;;;;;7.05;6.35;;;19.10;65.00;;;;;;4950795;28;20058;-65
2022/08/17 02:06:04;;;;;;;7.30;6.70;;;19.00;64.90;;;;;;4952852;28;20098;-65
2022/08/17 02:08:34;;;;;;;6.63;6.03;;;18.90;65.00;;;;;;4955920;28;20097;-65
2022/08/17 02:11:02;;;;;;;8.13;5.90;;;18.90;65.20;;;;;;4949166;28;20091;-64
2022/08/17 02:13:29;;;;;;;7.38;5.65;;;18.80;65.40;;;;;;4953345;28;20411;-65
2022/08/17 02:15:59;;;;;;;6.80;6.20;;;18.70;65.50;;;;;;4954297;28;20558;-66
2022/08/17 02:18:25;;;;;;;7.32;6.13;;;18.70;66.00;;;;;;4958204;28;20077;-66
2022/08/17 02:20:52;;;;;;;6.22;5.72;;;18.60;65.90;;;;;;4957269;28;20031;-64
2022/08/17 02:23:18;;;;;;;7.15;6.45;;;18.60;66.00;;;;;;4958507;28;20051;-65
2022/08/17 02:25:48;;;;;;;6.55;5.90;;;18.50;66.40;;;;;;4953242;28;20042;-65
2022/08/17 02:28:15;;;;;;;6.28;5.63;;;18.40;66.40;;;;;;4953808;28;20495;-65
2022/08/17 02:30:43;;;;;;;6.47;5.88;;;18.40;66.60;;;;;;4952329;28;20126;-66
2022/08/17 02:33:09;;;;;;;7.20;6.50;;;18.40;66.90;;;;;;4950689;28;20054;-65
2022/08/17 02:35:36;;;;;;;7.70;5.75;;;18.30;67.00;;;;;;4954845;28;20043;-65
2022/08/17 02:38:04;;;;;;;6.45;5.95;;;18.30;67.10;;;;;;4948733;28;20411;-65
2022/08/17 02:40:31;;;;;;;7.07;6.32;;;18.30;67.20;;;;;;4951274;28;20034;-65
2022/08/17 02:42:57;;;;;;;7.22;6.45;;;18.30;67.30;;;;;;4947561;28;20042;-65
2022/08/17 02:45:24;;;;;;;6.95;6.25;;;18.20;67.40;;;;;;4950440;28;20035;-65
2022/08/17 02:47:50;;;;;;;8.40;6.05;;;18.20;67.60;;;;;;4952132;28;20263;-66
2022/08/17 02:50:19;;;;;;;7.03;6.43;;;18.20;67.60;;;;;;4952522;28;20113;-65
2022/08/17 02:52:46;;;;;;;8.48;6.45;;;18.20;67.70;;;;;;4944277;28;20050;-65
2022/08/17 02:55:15;;;;;;;8.40;6.80;;;18.20;67.80;;;;;;4952113;28;20046;-65
2022/08/17 02:57:41;;;;;;;6.80;6.07;;;18.20;68.00;;;;;;4947651;28;20062;-65
2022/08/17 03:00:11;;;;;;;7.57;6.88;;;18.20;68.10;;;;;;4950602;28;20121;-65
2022/08/17 03:02:42;;;;;;;6.90;6.20;;;18.10;68.30;;;;;;4955818;28;20046;-65
2022/08/17 03:05:10;;;;;;;7.53;6.80;;;18.10;68.40;;;;;;4957147;28;20046;-65
2022/08/17 03:07:37;;;;;;;7.45;6.70;;;18.10;68.30;;;;;;4956174;28;20047;-65
2022/08/17 03:10:04;;;;;;;7.40;6.75;;;18.10;68.50;;;;;;4957651;28;20046;-65
2022/08/17 03:12:37;;;;;;;7.47;6.75;;;18.10;68.70;;;;;;4950899;28;20128;-65
2022/08/17 03:15:08;;;;;;;7.93;7.22;;;18.10;68.90;;;;;;4956052;28;20463;-65
2022/08/17 03:17:34;;;;;;;8.07;7.28;;;18.10;69.00;;;;;;4950975;28;20439;-65
2022/08/17 03:20:00;;;;;;;8.15;7.45;;;18.10;68.60;;;;;;4949682;28;20043;-65
2022/08/17 03:22:27;;;;;;;8.07;7.28;;;18.10;68.80;;;;;;4948054;28;20480;-65
2022/08/17 03:24:54;;;;;;;8.18;6.93;;;18.10;68.80;;;;;;4951871;28;20122;-65
2022/08/17 03:27:19;;;;;;;7.53;6.90;;;18.10;68.80;;;;;;4949792;28;20557;-65
2022/08/17 03:29:45;;;;;;;8.82;7.63;;;18.10;69.00;;;;;;4949532;28;20043;-65
2022/08/17 03:32:12;;;;;;;8.80;7.90;;;18.10;68.90;;;;;;4949908;28;20045;-65
2022/08/17 03:34:37;;;;;;;9.27;7.38;;;18.00;68.90;;;;;;4947051;28;20134;-65
2022/08/17 03:37:03;;;;;;;7.63;7.03;;;18.00;69.00;;;;;;4946696;28;20039;-65
2022/08/17 03:39:29;;;;;;;8.57;7.53;;;18.00;69.20;;;;;;4948421;28;20031;-64
2022/08/17 03:42:02;;;;;;;8.32;7.55;;;17.90;69.20;;;;;;4944324;28;20039;-65
2022/08/17 03:44:28;;;;;;;8.75;7.43;;;17.90;69.80;;;;;;4952899;28;20570;-65
2022/08/17 03:57:51;;;;;;;8.55;7.70;;;17.80;69.70;;;;;;4951515;28;20065;-65
2022/08/17 04:00:16;;;;;;;9.43;7.70;;;17.80;69.70;;;;;;4949569;28;20067;-65
2022/08/17 04:02:42;;;;;;;8.98;8.15;;;17.90;69.90;;;;;;4947250;28;20117;-65
2022/08/17 04:05:08;;;;;;;8.63;7.82;;;17.90;70.00;;;;;;4933634;28;20066;-65
2022/08/17 04:07:34;;;;;;;10.93;7.40;;;17.90;70.00;;;;;;4952548;28;20557;-65
2022/08/17 04:10:00;;;;;;;8.70;7.72;;;17.90;70.00;;;;;;4947712;28;20035;-65
2022/08/17 04:12:29;;;;;;;9.85;7.32;;;17.90;70.00;;;;;;4945499;28;20063;-65
2022/08/17 04:14:55;;;;;;;7.55;6.78;;;17.90;70.30;;;;;;4951705;28;20411;-65
2022/08/17 04:17:25;;;;;;;10.55;7.15;;;17.90;70.20;;;;;;4955874;28;20051;-65
2022/08/17 04:19:51;;;;;;;8.13;7.30;;;17.90;70.30;;;;;;4976536;28;20083;-65
2022/08/17 04:22:17;;;;;;;7.95;7.15;;;18.00;70.50;;;;;;4956586;28;20035;-65
2022/08/17 04:24:42;;;;;;;9.40;7.72;;;18.00;70.50;;;;;;4951394;28;20043;-65
2022/08/17 04:27:08;;;;;;;8.55;7.50;;;18.00;70.60;;;;;;4950958;28;20434;-65
2022/08/17 04:29:34;;;;;;;8.68;7.88;;;17.90;70.60;;;;;;4952122;28;20026;-65
2022/08/17 04:32:01;;;;;;;8.32;7.53;;;18.10;70.60;;;;;;4944338;28;20081;-65
2022/08/17 04:34:27;;;;;;;7.97;7.28;;;18.10;70.50;;;;;;4948574;28;20038;-65
2022/08/17 04:36:52;;;;;;;8.00;7.20;;;18.10;70.40;;;;;;4954506;28;20035;-64
2022/08/17 04:39:18;;;;;;;10.75;7.97;;;18.20;70.40;;;;;;4949531;28;20070;-65
2022/08/17 04:44:28;;;;;;;8.35;7.55;;;18.20;69.90;;;;;;4954936;28;20046;-66
2022/08/17 04:46:53;;;;;;;7.50;6.80;;;18.30;69.60;;;;;;4953281;28;20454;-65
2022/08/17 04:49:19;;;;;;;7.78;6.85;;;18.30;69.50;;;;;;4951553;28;20039;-65
2022/08/17 04:51:46;;;;;;;8.27;6.88;;;18.30;69.40;;;;;;4953807;28;20085;-65
2022/08/17 04:54:21;;;;;;;9.77;6.57;;;18.30;69.40;;;;;;4952741;28;20105;-63
2022/08/17 04:56:46;;;;;;;7.90;7.20;;;18.30;69.90;;;;;;4947077;28;20161;-64
2022/08/17 04:59:15;;;;;;;9.60;6.95;;;18.30;69.50;;;;;;4955140;28;20126;-65
2022/08/17 05:01:44;;;;;;;8.75;7.40;;;18.30;69.60;;;;;;4952363;28;20078;-66
2022/08/17 05:04:15;;;;;;;8.15;7.45;;;18.40;69.70;;;;;;4954050;28;20368;-65
2022/08/17 05:06:41;;;;;;;8.65;7.60;;;18.40;69.70;;;;;;4951835;28;20043;-65
2022/08/17 05:09:07;;;;;;;9.57;7.60;;;18.40;69.70;;;;;;4952935;28;20514;-65
2022/08/17 05:11:33;;;;;;;8.63;7.82;;;18.50;69.80;;;;;;4943221;28;20406;-65
2022/08/17 05:13:59;;;;;;;9.30;7.90;;;18.50;69.70;;;;;;4949509;28;20031;-65
2022/08/17 05:16:26;;;;;;;11.18;7.75;;;18.40;69.90;;;;;;4950871;28;20053;-66
2022/08/17 05:18:52;;;;;;;12.35;8.07;;;18.40;69.90;;;;;;4950892;28;20042;-65
2022/08/17 05:21:20;;;;;;;9.48;8.48;;;18.40;69.90;;;;;;4954993;28;20043;-64
2022/08/17 05:23:45;;;;;;;9.60;7.82;;;18.30;70.20;;;;;;4949244;28;20039;-65
2022/08/17 05:26:15;;;;;;;11.20;8.85;;;18.30;70.60;;;;;;4954934;28;20388;-65
2022/08/17 05:28:41;;;;;;;11.20;8.75;;;18.30;72.00;;;;;;4953892;28;20046;-65
2022/08/17 05:31:07;;;;;;;27.48;8.95;;;18.30;71.40;;;;;;4947368;28;20039;-65
2022/08/17 05:33:35;;;;;;;14.38;8.98;;;18.30;72.00;;;;;;4951590;28;20429;-64
2022/08/17 05:36:05;;;;;;;13.32;9.13;;;18.30;72.80;;;;;;4949579;28;20410;-64
2022/08/17 05:38:32;;;;;;;13.23;8.48;;;18.30;73.00;;;;;;4947887;28;20038;-65
2022/08/17 05:40:59;;;;;;;10.52;8.65;;;18.30;72.80;;;;;;4952324;28;20035;-66
2022/08/17 05:43:28;;;;;;;9.27;8.38;;;18.30;72.80;;;;;;4949485;28;20039;-65
2022/08/17 05:46:23;;;;;;;11.32;8.15;;;18.40;73.00;;;;;;4952505;28;20402;-65
2022/08/17 05:48:57;;;;;;;8.80;8.00;;;18.50;73.60;;;;;;4951001;28;20047;-65
2022/08/17 05:51:48;;;;;;;10.98;8.32;;;18.50;73.10;;;;;;4950380;28;20419;-65
2022/08/17 05:54:32;;;;;;;8.93;7.93;;;18.60;73.30;;;;;;4938064;28;20135;-65
2022/08/17 05:57:34;;;;;;;10.82;7.68;;;18.80;73.00;;;;;;4942871;28;20049;-66
2022/08/17 06:00:09;;;;;;;9.65;7.28;;;18.90;72.80;;;;;;4933057;28;20261;-65
2022/08/17 06:02:41;;;;;;;9.23;7.10;;;19.00;72.20;;;;;;4940661;28;20106;-64
2022/08/17 06:05:27;;;;;;;7.70;6.95;;;19.10;71.70;;;;;;4948708;28;20042;-64
2022/08/17 06:08:10;;;;;;;8.00;6.85;;;19.20;71.40;;;;;;4943045;28;20031;-65
2022/08/17 06:10:55;;;;;;;9.00;7.15;;;19.30;71.40;;;;;;4938121;28;20139;-64
2022/08/17 06:13:41;;;;;;;10.13;6.90;;;19.50;71.20;;;;;;4941255;28;20622;-65
2022/08/17 06:16:14;;;;;;;10.52;6.55;;;19.70;70.90;;;;;;4936554;28;20426;-65
2022/08/17 06:18:57;;;;;;;8.95;6.60;;;19.70;70.30;;;;;;4948298;28;20122;-65
2022/08/17 06:21:25;;;;;;;7.25;6.53;;;19.90;70.10;;;;;;4944260;28;20055;-65
2022/08/17 06:24:04;;;;;;;8.57;6.65;;;20.00;69.90;;;;;;4954551;28;20035;-65
2022/08/17 06:26:38;;;;;;;9.25;6.60;;;20.10;69.80;;;;;;4946199;28;20038;-65
2022/08/17 06:29:38;;;;;;;10.65;6.72;;;20.20;69.50;;;;;;4949071;28;20050;-62
2022/08/17 06:32:07;;;;;;;8.65;7.07;;;20.40;70.00;;;;;;4945457;28;20042;-65
2022/08/17 06:34:33;;;;;;;8.45;6.85;;;20.50;68.90;;;;;;4943831;28;20435;-64
2022/08/17 06:37:32;;;;;;;7.18;6.53;;;20.60;68.60;;;;;;4948066;28;20035;-65
2022/08/17 06:40:19;;;;;;;7.43;6.72;;;20.70;68.50;;;;;;4946752;28;20031;-65
2022/08/17 06:43:11;;;;;;;7.43;6.72;;;20.80;68.50;;;;;;4945353;28;20168;-64
2022/08/17 06:46:10;;;;;;;7.88;7.18;;;20.90;68.50;;;;;;4957911;28;20654;-65
2022/08/17 06:48:48;;;;;;;8.07;7.30;;;21.00;68.40;;;;;;4941404;28;20046;-64
2022/08/17 06:51:39;;;;;;;8.73;7.63;;;21.10;68.30;;;;;;4956389;28;20069;-65
2022/08/17 06:54:07;;;;;;;8.73;7.20;;;21.20;68.20;;;;;;4943968;28;20117;-65
2022/08/17 06:56:52;;;;;;;9.50;6.88;;;21.30;67.60;;;;;;4950238;28;20577;-65
2022/08/17 06:59:23;;;;;;;9.90;6.38;;;21.50;67.10;;;;;;4955102;28;20038;-65
2022/08/17 07:01:51;;;;;;;8.95;6.20;;;21.50;66.90;;;;;;4952940;28;20527;-65
2022/08/17 07:04:25;;;;;;;5.43;4.93;;;21.60;66.40;;;;;;4951403;28;20047;-65
2022/08/17 07:06:56;;;;;;;13.07;5.65;;;21.70;65.20;;;;;;4953173;28;20038;-64
2022/08/17 07:09:32;;;;;;;8.48;5.40;;;21.80;65.00;;;;;;4948735;28;20046;-64
2022/08/17 07:12:04;;;;;;;5.45;4.95;;;21.90;64.60;;;;;;4948218;28;20066;-65
2022/08/17 07:14:50;;;;;;;7.82;4.93;;;22.00;64.10;;;;;;4949011;28;20546;-65
2022/08/17 07:17:17;;;;;;;5.30;4.72;;;22.10;63.10;;;;;;4948107;28;20039;-65
2022/08/17 07:19:46;;;;;;;6.93;4.85;;;22.20;63.20;;;;;;4949319;28;20038;-65
2022/08/17 07:22:12;;;;;;;5.22;4.45;;;22.30;63.30;;;;;;4947135;28;20141;-64
2022/08/17 07:25:01;;;;;;;7.18;5.25;;;22.40;63.00;;;;;;4946779;28;20415;-65
2022/08/17 07:27:31;;;;;;;5.95;4.53;;;22.50;62.40;;;;;;4944826;28;20082;-65
2022/08/17 07:29:57;;;;;;;5.13;4.55;;;22.60;62.60;;;;;;4948575;28;20039;-65
2022/08/17 07:32:30;;;;;;;8.98;6.10;;;22.70;62.10;;;;;;4947058;28;20042;-65
2022/08/17 07:35:09;;;;;;;6.93;4.55;;;22.70;61.20;;;;;;4951980;28;20044;-65
2022/08/17 07:37:37;;;;;;;4.97;4.55;;;22.80;60.40;;;;;;4950513;28;20094;-65
2022/08/17 07:40:17;;;;;;;8.10;4.20;;;22.90;60.60;;;;;;4952251;28;20041;-65
2022/08/17 07:43:09;;;;;;;4.80;4.40;;;22.90;60.10;;;;;;4953043;28;20028;-65
2022/08/17 07:48:25;;;;;;;7.72;5.10;;;23.00;60.50;;;;;;4955557;28;20073;-65
2022/08/17 07:50:53;;;;;;;5.97;4.63;;;23.10;60.40;;;;;;4954124;28;20065;-65
2022/08/17 07:53:23;;;;;;;5.05;4.55;;;23.10;60.30;;;;;;4951402;28;20035;-65
2022/08/17 07:55:49;;;;;;;7.13;5.22;;;23.20;60.00;;;;;;4953655;28;20043;-65
2022/08/17 07:58:25;;;;;;;7.82;4.82;;;23.30;60.10;;;;;;4952303;28;20502;-64
2022/08/17 08:01:17;;;;;;;6.95;4.95;;;23.40;59.80;;;;;;4951485;28;20066;-65
2022/08/17 08:03:44;;;;;;;7.15;4.65;;;23.50;59.80;;;;;;4951659;28;20027;-65
2022/08/17 08:06:25;;;;;;;5.32;4.70;;;23.60;60.00;;;;;;4952743;28;20035;-64
2022/08/17 08:08:53;;;;;;;6.57;5.00;;;23.60;59.40;;;;;;4953259;28;20573;-65
2022/08/17 08:11:48;;;;;;;6.85;5.20;;;23.70;59.50;;;;;;4949869;28;20035;-65
2022/08/17 08:14:28;;;;;;;9.23;5.13;;;23.80;59.00;;;;;;4944013;28;20093;-65
2022/08/17 08:17:06;;;;;;;5.15;4.65;;;23.90;58.80;;;;;;4955641;28;20493;-65
2022/08/17 08:19:32;;;;;;;5.72;5.22;;;24.00;58.90;;;;;;4962259;28;20073;-65
2022/08/17 08:22:12;;;;;;;6.68;4.90;;;24.10;58.80;;;;;;4953924;28;20141;-65
2022/08/17 08:25:06;;;;;;;6.88;4.90;;;24.10;58.50;;;;;;4956743;28;20046;-64
2022/08/17 08:27:48;;;;;;;8.25;4.68;;;24.20;58.10;;;;;;4954807;28;20133;-66
2022/08/17 08:30:18;;;;;;;6.65;4.25;;;24.30;57.80;;;;;;4954497;28;20035;-65
2022/08/17 08:32:45;;;;;;;23.60;5.43;;;24.40;58.00;;;;;;4953829;28;20562;-65
2022/08/17 08:35:11;;;;;;;9.27;4.57;;;24.40;58.00;;;;;;4956966;28;20219;-64
2022/08/17 08:38:01;;;;;;;6.38;4.30;;;24.50;57.90;;;;;;4956936;28;20035;-65
2022/08/17 08:40:37;;;;;;;5.97;3.97;;;24.60;57.20;;;;;;4954215;28;20043;-65
2022/08/17 08:43:18;;;;;;;4.43;4.03;;;24.60;57.50;;;;;;4957392;28;20034;-65
2022/08/17 08:45:49;;;;;;;6.47;4.55;;;24.70;57.00;;;;;;4956136;28;20180;-65
2022/08/17 08:48:24;;;;;;;5.55;4.03;;;24.80;56.70;;;;;;4956993;28;20466;-65
2022/08/17 08:51:13;;;;;;;4.65;3.97;;;24.80;56.70;;;;;;4955255;28;20058;-65
2022/08/17 08:53:48;;;;;;;4.63;3.90;;;24.90;56.10;;;;;;4951587;28;20691;-65
2022/08/17 08:56:19;;;;;;;4.57;3.88;;;25.00;56.30;;;;;;4955269;28;20040;-65
2022/08/17 08:58:54;;;;;;;5.47;4.28;;;25.00;56.60;;;;;;4955896;28;20045;-65
2022/08/17 09:01:23;;;;;;;8.73;3.65;;;25.10;56.20;;;;;;4956679;28;20059;-65
2022/08/17 09:04:03;;;;;;;5.05;3.67;;;25.30;56.10;;;;;;4956276;28;20039;-65
2022/08/17 09:06:56;;;;;;;5.00;4.10;;;25.40;56.30;;;;;;4956309;28;20031;-65
2022/08/17 09:09:44;;;;;;;4.15;3.55;;;25.50;55.90;;;;;;4955770;28;20131;-65
2022/08/17 09:12:17;;;;;;;5.60;3.60;;;25.60;56.10;;;;;;4940255;28;20038;-65
2022/08/17 09:15:09;;;;;;;4.10;3.40;;;25.80;55.70;;;;;;4948884;28;20045;-65
2022/08/17 09:18:11;;;;;;;4.35;3.35;;;25.90;55.80;;;;;;4947874;28;20470;-65
2022/08/17 09:21:16;;;;;;;4.32;3.50;;;26.00;54.90;;;;;;4948051;28;20042;-66
2022/08/17 09:24:11;;;;;;;3.72;3.42;;;26.20;54.30;;;;;;4949990;28;20609;-65
2022/08/17 09:27:12;;;;;;;5.07;3.30;;;26.30;54.60;;;;;;4940144;28;20434;-64
2022/08/17 09:29:52;;;;;;;3.28;3.03;;;26.30;53.60;;;;;;4951097;28;20043;-65
2022/08/17 09:32:27;;;;;;;7.18;3.50;;;26.40;54.10;;;;;;4951206;28;20094;-65
2022/08/17 09:35:00;;;;;;;8.65;3.78;;;26.50;53.60;;;;;;4950581;28;20380;-65
2022/08/17 09:37:40;;;;;;;7.97;3.60;;;26.60;53.20;;;;;;4950087;28;20646;-65
2022/08/17 09:40:38;;;;;;;4.53;3.10;;;26.70;53.20;;;;;;4950041;28;20039;-65
2022/08/17 09:43:13;;;;;;;5.97;3.17;;;26.80;52.80;;;;;;4920778;28;20027;-65
2022/08/17 09:45:50;;;;;;;5.05;3.30;;;26.80;53.30;;;;;;4947918;28;20379;-65
2022/08/17 09:48:40;;;;;;;3.97;3.15;;;27.00;52.60;;;;;;4950628;28;20396;-65
2022/08/17 09:51:19;;;;;;;5.18;3.70;;;27.10;52.20;;;;;;4943487;28;20043;-63
2022/08/17 09:53:44;;;;;;;3.30;3.00;;;27.10;52.00;;;;;;4950105;28;20424;-63
2022/08/17 09:56:31;;;;;;;3.80;3.35;;;27.20;52.40;;;;;;4946472;28;20170;-65
2022/08/17 09:59:06;;;;;;;4.55;3.20;;;27.30;51.80;;;;;;4945337;28;20553;-64
2022/08/17 10:01:35;;;;;;;;;;;27.40;51.70;;;;;;4948864;28;20042;-65
2022/08/17 10:04:12;;;;;;;4.68;3.30;;;27.50;52.10;;;;;;4947898;28;19933;-64
2022/08/17 10:07:14;;;;;;;4.10;3.15;;;27.50;51.80;;;;;;4952644;28;20133;-64
2022/08/17 10:09:54;;;;;;;3.55;3.25;;;27.60;51.40;;;;;;4888514;28;20205;-64
2022/08/17 10:12:20;;;;;;;3.33;3.03;;;27.70;51.90;;;;;;4948040;28;20027;-64
2022/08/17 10:14:52;;;;;;;3.92;3.30;;;27.80;51.40;;;;;;4945986;28;20043;-65
2022/08/17 10:17:43;;;;;;;4.53;3.25;;;27.90;50.60;;;;;;4951473;28;20042;-65
2022/08/17 10:20:33;;;;;;;3.30;3.03;;;28.00;48.90;;;;;;4951841;28;20046;-65
2022/08/17 10:26:14;;;;;;;3.60;3.30;;;28.10;49.50;;;;;;4951651;28;20660;-63
2022/08/17 10:28:46;;;;;;;3.58;3.22;;;28.20;49.50;;;;;;4949128;28;20047;-65
2022/08/17 10:31:23;;;;;;;4.22;3.28;;;28.20;50.00;;;;;;4950657;28;20035;-63
2022/08/17 10:34:17;;;;;;;7.82;3.25;;;28.30;49.40;;;;;;4948764;28;20542;-64
2022/08/17 10:37:01;;;;;;;5.38;3.25;;;28.40;49.40;;;;;;4948477;28;20045;-64
2022/08/17 10:39:36;;;;;;;3.40;3.10;;;28.50;48.90;;;;;;4949912;28;20023;-64
2022/08/17 10:42:17;;;;;;;3.45;2.92;;;28.50;49.00;;;;;;4950647;28;20031;-64
2022/08/17 10:44:54;;;;;;;3.70;3.38;;;28.60;47.30;;;;;;4944912;28;20039;-65
2022/08/17 10:47:22;;;;;;;4.03;3.00;;;28.60;48.80;;;;;;4949109;28;20031;-66
2022/08/17 10:49:52;;;;;;;7.50;3.40;;;28.70;48.50;;;;;;4948389;28;20661;-65
2022/08/17 10:52:28;;;;;;;3.72;2.70;;;28.70;47.90;;;;;;4948675;28;20074;-65
2022/08/17 10:54:55;;;;;;;5.03;2.90;;;28.70;48.10;;;;;;4949910;28;20067;-64
2022/08/17 10:57:32;;;;;;;2.95;2.65;;;28.70;48.00;;;;;;4949225;28;20039;-64
2022/08/17 10:59:59;;;;;;;3.63;3.10;;;28.70;46.90;;;;;;4952176;28;20035;-64
2022/08/17 11:02:38;;;;;;;4.00;2.90;;;28.70;47.50;;;;;;4957191;28;20396;-64
2022/08/17 11:05:32;;;;;;;4.57;3.38;;;28.70;47.90;;;;;;4949384;28;20035;-64
2022/08/17 11:08:26;;;;;;;6.50;3.13;;;28.90;47.50;;;;;;4941279;28;20039;-64
2022/08/17 11:11:35;;;;;;;3.95;3.10;;;28.90;47.90;;;;;;4942753;28;20075;-65
2022/08/17 11:14:47;;;;;;;5.82;2.95;;;29.00;48.30;;;;;;4900342;29;20039;-65
2022/08/17 11:17:18;;;;;;;10.18;3.25;;;29.10;47.50;;;;;;4847380;29;20061;-65
2022/08/17 11:20:05;;;;;;;6.32;2.97;;;29.20;47.30;;;;;;4860478;29;20178;-64
2022/08/17 11:22:46;;;;;;;3.58;2.88;;;29.30;47.30;;;;;;4925979;28;20043;-65
2022/08/17 11:25:19;;;;;;;4.15;3.20;;;29.40;46.90;;;;;;4953487;28;20035;-65
2022/08/17 11:27:52;;;;;;;2.70;2.50;;;29.40;46.80;;;;;;4955069;28;20042;-65
2022/08/17 11:30:43;;;;;;;2.75;2.55;;;29.50;46.60;;;;;;4952775;28;20069;-66
2022/08/17 11:33:33;;;;;;;3.30;2.38;;;29.60;44.70;;;;;;4954710;28;20110;-65
2022/08/17 11:36:30;;;;;;;3.00;2.80;;;29.60;44.40;;;;;;4954956;28;20039;-65
2022/08/17 11:39:21;;;;;;;2.78;2.53;;;29.60;44.10;;;;;;4954320;28;20091;-64
2022/08/17 11:42:11;;;;;;;2.35;2.15;;;29.60;44.40;;;;;;4944671;28;20031;-64
2022/08/17 11:44:51;;;;;;;3.03;2.53;;;29.60;44.70;;;;;;4955091;28;20058;-65
2022/08/17 11:53:38;;;;;;;2.50;2.28;;;29.50;44.70;;;;;;4956687;28;20114;-66
2022/08/17 11:56:09;;;;;;;2.78;2.47;;;29.50;44.20;;;;;;4958207;28;20031;-64
2022/08/17 11:58:39;;;;;;;4.90;2.90;;;29.50;44.30;;;;;;4958426;28;20511;-66
2022/08/17 12:01:31;;;;;;;3.45;2.70;;;29.50;45.00;;;;;;4956751;28;20488;-64
2022/08/17 12:04:30;;;;;;;4.47;2.58;;;29.50;44.60;;;;;;4958229;28;20035;-64
2022/08/17 12:07:19;;;;;;;3.60;2.30;;;29.60;44.00;;;;;;4911544;28;20031;-65
2022/08/17 12:09:49;;;;;;;2.25;2.05;;;29.60;44.20;;;;;;4955037;28;20553;-64
2022/08/17 12:12:31;;;;;;;2.58;2.40;;;29.70;44.60;;;;;;4947247;28;20037;-64
2022/08/17 12:14:58;;;;;;;2.80;2.60;;;29.70;43.90;;;;;;4955714;28;20034;-65
2022/08/17 12:17:30;;;;;;;2.70;2.50;;;29.80;43.70;;;;;;4956453;28;20166;-64
2022/08/17 12:20:28;;;;;;;2.60;2.40;;;29.90;43.70;;;;;;4957831;28;20452;-64
2022/08/17 12:23:10;;;;;;;2.80;2.50;;;30.00;42.40;;;;;;4957836;28;20042;-65
2022/08/17 12:25:46;;;;;;;4.13;2.30;;;30.00;42.40;;;;;;4959023;28;20034;-65
2022/08/17 12:28:27;;;;;;;6.38;2.60;;;30.10;43.10;;;;;;4955150;28;20035;-64
2022/08/17 12:30:56;;;;;;;3.72;2.30;;;30.10;41.70;;;;;;4952738;28;20522;-65
2022/08/17 12:33:24;;;;;;;2.80;2.30;;;30.10;41.90;;;;;;4954181;28;20217;-64
2022/08/17 12:36:02;;;;;;;4.85;2.10;;;30.10;42.10;;;;;;4957274;28;20085;-64
2022/08/17 12:38:33;;;;;;;2.65;1.85;;;30.10;40.90;;;;;;4957164;28;20039;-64
2022/08/17 12:41:24;;;;;;;2.40;2.20;;;30.00;42.50;;;;;;4956191;28;20507;-64
2022/08/17 12:44:13;;;;;;;2.35;2.22;;;30.00;42.40;;;;;;4957158;28;20576;-64
2022/08/17 12:47:05;;;;;;;2.20;2.10;;;30.00;41.60;;;;;;4927368;28;20282;-65
2022/08/17 12:49:34;;;;;;;2.50;2.30;;;30.00;40.80;;;;;;4957988;28;20407;-65
2022/08/17 12:52:23;;;;;;;2.28;2.17;;;30.00;42.40;;;;;;4955980;28;20034;-64
2022/08/17 12:55:00;;;;;;;2.70;2.17;;;30.00;42.30;;;;;;4956372;28;20035;-65
2022/08/17 12:57:38;;;;;;;3.25;2.40;;;30.00;41.60;;;;;;4956399;28;20043;-63
2022/08/17 13:00:27;;;;;;;2.38;2.17;;;29.90;41.50;;;;;;4955715;28;20050;-64
2022/08/17 13:03:02;;;;;;;2.40;2.20;;;29.90;40.70;;;;;;4954879;28;20034;-64
2022/08/17 13:05:36;;;;;;;2.85;2.25;;;29.80;41.90;;;;;;4955841;28;20039;-64
2022/08/17 13:08:24;;;;;;;2.47;2.22;;;29.70;42.10;;;;;;4955611;28;20043;-64
2022/08/17 13:11:08;;;;;;;5.40;2.85;;;29.70;42.30;;;;;;4949619;28;20043;-64
2022/08/17 13:13:37;;;;;;;2.90;2.38;;;29.60;41.00;;;;;;4956606;28;20071;-64
2022/08/17 13:16:13;;;;;;;3.75;2.45;;;29.60;41.90;;;;;;4955217;28;20101;-65
2022/08/17 13:18:41;;;;;;;2.65;2.45;;;29.50;41.60;;;;;;4957058;28;20118;-63
2022/08/17 13:21:18;;;;;;;2.65;2.45;;;29.50;41.90;;;;;;4954630;28;20047;-62
2022/08/17 13:24:03;;;;;;;5.55;2.42;;;29.50;41.60;;;;;;4956371;28;20577;-65
2022/08/17 13:26:39;;;;;;;2.65;2.25;;;29.40;41.80;;;;;;4956338;28;20545;-64
2022/08/17 13:29:16;;;;;;;2.67;2.38;;;29.40;42.50;;;;;;4954324;28;20039;-65
2022/08/17 13:31:42;;;;;;;4.18;2.33;;;29.40;42.60;;;;;;4950952;28;20117;-63
2022/08/17 13:34:35;;;;;;;3.08;2.55;;;29.40;43.00;;;;;;4955716;28;20031;-64
2022/08/17 13:37:28;;;;;;;2.85;1.98;;;29.40;42.00;;;;;;4947915;28;20126;-64
2022/08/17 13:40:00;;;;;;;2.33;2.13;;;29.50;42.30;;;;;;4955002;28;20026;-64
2022/08/17 13:42:39;;;;;;;3.38;2.30;;;29.50;42.10;;;;;;4951873;28;20039;-64
2022/08/17 13:45:29;;;;;;;4.30;2.63;;;29.50;42.30;;;;;;4936420;28;20035;-65
2022/08/17 13:48:07;;;;;;;4.57;2.63;;;29.50;41.90;;;;;;4955434;28;20364;-65
2022/08/17 13:50:40;;;;;;;2.33;2.10;;;29.50;41.20;;;;;;4953075;28;20044;-65